sensor_id;sensor_type;location;lat;lon;timestamp;temperature;humidity
67077;DHT22;53991;46.364;17.008;2022-07-06T00:01:59;15.00;99.90
67077;DHT22;53991;46.364;17.008;2022-07-06T00:05:01;15.10;99.90
67077;DHT22;53991;46.364;17.008;2022-07-06T00:08:03;15.10;99.90
67077;DHT22;53991;46.364;17.008;2022-07-06T00:11:05;15.10;99.90
67077;DHT22;53991;46.364;17.008;2022-07-06T00:14:07;14.90;99.90
67077;DHT22;53991;46.364;17.008;2022-07-06T00:17:09;14.80;99.90
67077;DHT22;53991;46.364;17.008;2022-07-06T00:20:11;14.90;99.90
67077;DHT22;53991;46.364;17.008;2022-07-06T00:23:13;14.90;99.90
67077;DHT22;53991;46.364;17.008;2022-07-06T00:26:15;14.80;99.90
67077;DHT22;53991;46.364;17.008;2022-07-06T00:29:17;14.80;99.90
67077;DHT22;53991;46.364;17.008;2022-07-06T00:32:19;14.80;99.90
67077;DHT22;53991;46.364;17.008;2022-07-06T00:35:21;14.80;99.90
67077;DHT22;53991;46.364;17.008;2022-07-06T00:38:24;14.60;99.90
67077;DHT22;53991;46.364;17.008;2022-07-06T00:41:26;14.40;99.90
67077;DHT22;53991;46.364;17.008;2022-07-06T00:44:28;14.50;99.90
67077;DHT22;53991;46.364;17.008;2022-07-06T00:47:30;14.50;99.90
67077;DHT22;53991;46.364;17.008;2022-07-06T00:50:33;14.40;99.90
67077;DHT22;53991;46.364;17.008;2022-07-06T00:53:35;14.40;99.90
67077;DHT22;53991;46.364;17.008;2022-07-06T00:56:37;14.40;99.90
67077;DHT22;53991;46.364;17.008;2022-07-06T00:59:39;14.40;99.90
67077;DHT22;53991;46.364;17.008;2022-07-06T01:02:42;14.40;99.90
67077;DHT22;53991;46.364;17.008;2022-07-06T01:05:44;14.30;99.90
67077;DHT22;53991;46.364;17.008;2022-07-06T01:08:46;14.20;99.90
67077;DHT22;53991;46.364;17.008;2022-07-06T01:11:49;14.20;99.90
67077;DHT22;53991;46.364;17.008;2022-07-06T01:14:51;14.20;99.90
67077;DHT22;53991;46.364;17.008;2022-07-06T01:17:53;14.30;99.90
67077;DHT22;53991;46.364;17.008;2022-07-06T01:21:07;14.20;99.90
67077;DHT22;53991;46.364;17.008;2022-07-06T01:24:09;14.00;99.90
67077;DHT22;53991;46.364;17.008;2022-07-06T01:27:11;14.00;99.90
67077;DHT22;53991;46.364;17.008;2022-07-06T01:30:15;14.00;99.90
67077;DHT22;53991;46.364;17.008;2022-07-06T01:33:17;14.00;99.90
67077;DHT22;53991;46.364;17.008;2022-07-06T01:36:19;14.00;99.90
67077;DHT22;53991;46.364;17.008;2022-07-06T01:39:21;14.00;99.90
67077;DHT22;53991;46.364;17.008;2022-07-06T01:42:23;14.10;99.90
67077;DHT22;53991;46.364;17.008;2022-07-06T01:45:25;14.00;99.90
67077;DHT22;53991;46.364;17.008;2022-07-06T01:48:27;13.90;99.90
67077;DHT22;53991;46.364;17.008;2022-07-06T01:51:29;13.90;99.90
67077;DHT22;53991;46.364;17.008;2022-07-06T01:54:30;13.70;99.90
67077;DHT22;53991;46.364;17.008;2022-07-06T01:57:32;13.80;99.90
67077;DHT22;53991;46.364;17.008;2022-07-06T02:00:34;13.70;99.90
67077;DHT22;53991;46.364;17.008;2022-07-06T02:03:37;13.70;99.90
67077;DHT22;53991;46.364;17.008;2022-07-06T02:06:39;13.70;99.90
67077;DHT22;53991;46.364;17.008;2022-07-06T02:09:41;13.60;99.90
67077;DHT22;53991;46.364;17.008;2022-07-06T02:12:43;13.80;99.90
67077;DHT22;53991;46.364;17.008;2022-07-06T02:15:45;13.70;99.90
67077;DHT22;53991;46.364;17.008;2022-07-06T02:18:47;13.60;99.90
67077;DHT22;53991;46.364;17.008;2022-07-06T02:21:49;13.60;99.90
67077;DHT22;53991;46.364;17.008;2022-07-06T02:24:51;13.60;99.90
67077;DHT22;53991;46.364;17.008;2022-07-06T02:27:53;13.60;99.90
67077;DHT22;53991;46.364;17.008;2022-07-06T02:30:55;13.50;99.90
67077;DHT22;53991;46.364;17.008;2022-07-06T02:33:57;13.40;99.90
67077;DHT22;53991;46.364;17.008;2022-07-06T02:36:58;13.40;99.90
67077;DHT22;53991;46.364;17.008;2022-07-06T02:40:00;13.50;99.90
67077;DHT22;53991;46.364;17.008;2022-07-06T02:43:02;13.40;99.90
67077;DHT22;53991;46.364;17.008;2022-07-06T02:46:05;13.20;99.90
67077;DHT22;53991;46.364;17.008;2022-07-06T02:49:07;13.20;99.90
67077;DHT22;53991;46.364;17.008;2022-07-06T02:52:09;13.10;99.90
67077;DHT22;53991;46.364;17.008;2022-07-06T02:55:11;13.20;99.90
67077;DHT22;53991;46.364;17.008;2022-07-06T02:58:12;13.30;99.90
67077;DHT22;53991;46.364;17.008;2022-07-06T03:01:14;13.20;99.90
67077;DHT22;53991;46.364;17.008;2022-07-06T03:04:16;13.10;99.90
67077;DHT22;53991;46.364;17.008;2022-07-06T03:07:18;13.10;99.90
67077;DHT22;53991;46.364;17.008;2022-07-06T03:10:20;13.00;99.90
67077;DHT22;53991;46.364;17.008;2022-07-06T03:13:22;13.10;99.90
67077;DHT22;53991;46.364;17.008;2022-07-06T03:16:24;13.10;99.90
67077;DHT22;53991;46.364;17.008;2022-07-06T03:19:26;13.10;99.90
67077;DHT22;53991;46.364;17.008;2022-07-06T03:22:28;13.20;99.90
67077;DHT22;53991;46.364;17.008;2022-07-06T03:25:30;13.10;99.90
67077;DHT22;53991;46.364;17.008;2022-07-06T03:28:32;13.10;99.90
67077;DHT22;53991;46.364;17.008;2022-07-06T03:31:34;13.10;99.90
67077;DHT22;53991;46.364;17.008;2022-07-06T03:34:36;13.00;99.90
67077;DHT22;53991;46.364;17.008;2022-07-06T03:37:38;13.10;99.90
67077;DHT22;53991;46.364;17.008;2022-07-06T03:40:40;13.10;99.90
67077;DHT22;53991;46.364;17.008;2022-07-06T03:43:42;13.20;99.90
67077;DHT22;53991;46.364;17.008;2022-07-06T03:46:43;13.20;99.90
67077;DHT22;53991;46.364;17.008;2022-07-06T03:49:45;13.30;99.90
67077;DHT22;53991;46.364;17.008;2022-07-06T03:52:47;13.40;99.90
67077;DHT22;53991;46.364;17.008;2022-07-06T03:55:49;13.40;99.90
67077;DHT22;53991;46.364;17.008;2022-07-06T03:58:51;13.30;99.90
67077;DHT22;53991;46.364;17.008;2022-07-06T04:01:53;13.40;99.90
67077;DHT22;53991;46.364;17.008;2022-07-06T04:04:55;13.50;99.90
67077;DHT22;53991;46.364;17.008;2022-07-06T04:07:57;13.50;99.90
67077;DHT22;53991;46.364;17.008;2022-07-06T04:10:59;13.50;99.90
67077;DHT22;53991;46.364;17.008;2022-07-06T04:14:01;13.50;99.90
67077;DHT22;53991;46.364;17.008;2022-07-06T04:17:03;13.60;99.90
67077;DHT22;53991;46.364;17.008;2022-07-06T04:20:06;13.70;99.90
67077;DHT22;53991;46.364;17.008;2022-07-06T04:23:08;13.70;99.90
67077;DHT22;53991;46.364;17.008;2022-07-06T04:26:10;13.90;99.90
67077;DHT22;53991;46.364;17.008;2022-07-06T04:29:12;14.00;99.90
67077;DHT22;53991;46.364;17.008;2022-07-06T04:32:14;14.20;99.90
67077;DHT22;53991;46.364;17.008;2022-07-06T04:35:15;14.90;99.90
67077;DHT22;53991;46.364;17.008;2022-07-06T04:38:18;16.20;99.90
67077;DHT22;53991;46.364;17.008;2022-07-06T04:41:20;17.40;99.90
67077;DHT22;53991;46.364;17.008;2022-07-06T04:44:22;18.60;99.90
67077;DHT22;53991;46.364;17.008;2022-07-06T04:47:24;19.50;99.90
67077;DHT22;53991;46.364;17.008;2022-07-06T04:50:26;20.40;99.90
67077;DHT22;53991;46.364;17.008;2022-07-06T04:53:28;21.00;99.90
67077;DHT22;53991;46.364;17.008;2022-07-06T04:56:30;21.70;99.90
67077;DHT22;53991;46.364;17.008;2022-07-06T04:59:31;22.20;99.90
67077;DHT22;53991;46.364;17.008;2022-07-06T05:02:33;22.70;99.90
67077;DHT22;53991;46.364;17.008;2022-07-06T05:05:36;23.10;99.90
67077;DHT22;53991;46.364;17.008;2022-07-06T05:08:38;23.50;99.90
67077;DHT22;53991;46.364;17.008;2022-07-06T05:11:39;23.90;99.90
67077;DHT22;53991;46.364;17.008;2022-07-06T05:14:41;24.50;99.90
67077;DHT22;53991;46.364;17.008;2022-07-06T05:17:43;24.90;99.90
67077;DHT22;53991;46.364;17.008;2022-07-06T05:20:45;25.30;99.60
67077;DHT22;53991;46.364;17.008;2022-07-06T05:23:47;26.10;98.20
67077;DHT22;53991;46.364;17.008;2022-07-06T05:26:49;25.90;98.10
67077;DHT22;53991;46.364;17.008;2022-07-06T05:29:51;26.40;97.30
67077;DHT22;53991;46.364;17.008;2022-07-06T05:32:53;26.60;95.80
67077;DHT22;53991;46.364;17.008;2022-07-06T05:35:55;26.00;96.60
67077;DHT22;53991;46.364;17.008;2022-07-06T05:38:57;25.90;96.40
67077;DHT22;53991;46.364;17.008;2022-07-06T05:41:59;26.00;97.30
67077;DHT22;53991;46.364;17.008;2022-07-06T05:45:01;27.20;94.60
67077;DHT22;53991;46.364;17.008;2022-07-06T05:48:03;27.00;94.50
67077;DHT22;53991;46.364;17.008;2022-07-06T05:54:07;26.80;93.60
67077;DHT22;53991;46.364;17.008;2022-07-06T05:57:09;27.80;93.90
67077;DHT22;53991;46.364;17.008;2022-07-06T06:00:12;27.90;92.30
67077;DHT22;53991;46.364;17.008;2022-07-06T06:03:14;28.00;91.40
67077;DHT22;53991;46.364;17.008;2022-07-06T06:06:16;28.20;92.00
67077;DHT22;53991;46.364;17.008;2022-07-06T06:09:18;29.20;89.30
67077;DHT22;53991;46.364;17.008;2022-07-06T06:12:20;28.90;90.40
67077;DHT22;53991;46.364;17.008;2022-07-06T06:15:21;29.60;86.50
67077;DHT22;53991;46.364;17.008;2022-07-06T06:18:23;30.10;84.30
67077;DHT22;53991;46.364;17.008;2022-07-06T06:21:26;30.90;82.00
67077;DHT22;53991;46.364;17.008;2022-07-06T06:24:28;31.10;77.20
67077;DHT22;53991;46.364;17.008;2022-07-06T06:27:30;31.20;76.00
67077;DHT22;53991;46.364;17.008;2022-07-06T06:30:32;31.70;74.90
67077;DHT22;53991;46.364;17.008;2022-07-06T06:33:34;32.20;73.70
67077;DHT22;53991;46.364;17.008;2022-07-06T06:36:36;31.40;73.80
67077;DHT22;53991;46.364;17.008;2022-07-06T06:39:38;32.00;72.40
67077;DHT22;53991;46.364;17.008;2022-07-06T06:42:40;32.20;71.20
67077;DHT22;53991;46.364;17.008;2022-07-06T06:45:41;32.50;65.50
67077;DHT22;53991;46.364;17.008;2022-07-06T06:48:43;32.60;69.20
67077;DHT22;53991;46.364;17.008;2022-07-06T06:51:45;33.00;69.30
67077;DHT22;53991;46.364;17.008;2022-07-06T06:54:47;33.10;66.00
67077;DHT22;53991;46.364;17.008;2022-07-06T06:57:49;33.10;58.80
67077;DHT22;53991;46.364;17.008;2022-07-06T07:00:51;33.30;56.30
67077;DHT22;53991;46.364;17.008;2022-07-06T07:03:53;33.10;56.60
67077;DHT22;53991;46.364;17.008;2022-07-06T07:06:58;33.30;55.00
67077;DHT22;53991;46.364;17.008;2022-07-06T07:10:00;34.00;57.90
67077;DHT22;53991;46.364;17.008;2022-07-06T07:13:02;33.90;52.00
67077;DHT22;53991;46.364;17.008;2022-07-06T07:16:05;33.20;52.40
67077;DHT22;53991;46.364;17.008;2022-07-06T07:19:07;33.10;52.90
67077;DHT22;53991;46.364;17.008;2022-07-06T07:22:09;31.80;54.70
67077;DHT22;53991;46.364;17.008;2022-07-06T07:25:11;32.00;53.50
67077;DHT22;53991;46.364;17.008;2022-07-06T07:28:12;32.40;54.20
67077;DHT22;53991;46.364;17.008;2022-07-06T07:31:14;33.40;54.20
67077;DHT22;53991;46.364;17.008;2022-07-06T07:34:16;31.90;52.50
67077;DHT22;53991;46.364;17.008;2022-07-06T07:37:18;32.40;50.60
67077;DHT22;53991;46.364;17.008;2022-07-06T07:40:20;32.40;49.90
67077;DHT22;53991;46.364;17.008;2022-07-06T07:43:22;31.20;52.20
67077;DHT22;53991;46.364;17.008;2022-07-06T07:46:24;31.50;56.70
67077;DHT22;53991;46.364;17.008;2022-07-06T07:49:26;32.20;54.60
67077;DHT22;53991;46.364;17.008;2022-07-06T07:52:28;32.40;52.50
67077;DHT22;53991;46.364;17.008;2022-07-06T07:55:30;32.20;55.40
67077;DHT22;53991;46.364;17.008;2022-07-06T07:58:47;31.70;51.20
67077;DHT22;53991;46.364;17.008;2022-07-06T08:01:49;31.30;55.30
67077;DHT22;53991;46.364;17.008;2022-07-06T08:04:51;30.30;56.40
67077;DHT22;53991;46.364;17.008;2022-07-06T08:07:53;29.80;56.90
67077;DHT22;53991;46.364;17.008;2022-07-06T08:10:55;30.50;58.60
67077;DHT22;53991;46.364;17.008;2022-07-06T08:14:17;32.40;57.90
67077;DHT22;53991;46.364;17.008;2022-07-06T08:17:19;33.60;48.40
67077;DHT22;53991;46.364;17.008;2022-07-06T08:20:21;32.60;50.30
67077;DHT22;53991;46.364;17.008;2022-07-06T08:23:23;32.90;52.20
67077;DHT22;53991;46.364;17.008;2022-07-06T08:26:26;32.80;50.60
67077;DHT22;53991;46.364;17.008;2022-07-06T08:29:28;33.40;50.10
67077;DHT22;53991;46.364;17.008;2022-07-06T08:32:29;33.60;45.80
67077;DHT22;53991;46.364;17.008;2022-07-06T08:35:51;32.90;46.00
67077;DHT22;53991;46.364;17.008;2022-07-06T08:38:53;32.70;46.60
67077;DHT22;53991;46.364;17.008;2022-07-06T08:41:56;32.30;49.50
67077;DHT22;53991;46.364;17.008;2022-07-06T08:45:05;32.50;48.40
67077;DHT22;53991;46.364;17.008;2022-07-06T08:48:09;33.70;48.90
67077;DHT22;53991;46.364;17.008;2022-07-06T08:51:13;33.40;50.00
67077;DHT22;53991;46.364;17.008;2022-07-06T08:54:15;33.70;43.60
67077;DHT22;53991;46.364;17.008;2022-07-06T08:57:17;34.00;46.40
67077;DHT22;53991;46.364;17.008;2022-07-06T09:00:19;31.60;47.10
67077;DHT22;53991;46.364;17.008;2022-07-06T09:03:21;33.50;49.80
67077;DHT22;53991;46.364;17.008;2022-07-06T09:06:25;34.40;45.50
67077;DHT22;53991;46.364;17.008;2022-07-06T09:09:29;34.80;48.50
67077;DHT22;53991;46.364;17.008;2022-07-06T09:12:31;34.50;44.80
67077;DHT22;53991;46.364;17.008;2022-07-06T09:15:33;33.50;44.60
67077;DHT22;53991;46.364;17.008;2022-07-06T09:18:39;33.10;46.10
67077;DHT22;53991;46.364;17.008;2022-07-06T09:21:41;33.90;44.50
67077;DHT22;53991;46.364;17.008;2022-07-06T09:24:44;33.30;47.40
67077;DHT22;53991;46.364;17.008;2022-07-06T09:27:47;33.60;45.60
67077;DHT22;53991;46.364;17.008;2022-07-06T09:30:49;34.10;46.60
67077;DHT22;53991;46.364;17.008;2022-07-06T09:34:01;33.80;47.70
67077;DHT22;53991;46.364;17.008;2022-07-06T09:37:03;34.40;48.50
67077;DHT22;53991;46.364;17.008;2022-07-06T09:40:18;33.60;48.00
67077;DHT22;53991;46.364;17.008;2022-07-06T09:43:23;34.00;45.10
67077;DHT22;53991;46.364;17.008;2022-07-06T09:46:26;33.30;46.60
67077;DHT22;53991;46.364;17.008;2022-07-06T09:49:28;33.10;48.40
67077;DHT22;53991;46.364;17.008;2022-07-06T09:52:34;33.00;46.80
67077;DHT22;53991;46.364;17.008;2022-07-06T09:55:37;33.10;45.80
67077;DHT22;53991;46.364;17.008;2022-07-06T09:58:39;32.60;46.80
67077;DHT22;53991;46.364;17.008;2022-07-06T10:02:04;33.40;52.20
67077;DHT22;53991;46.364;17.008;2022-07-06T10:05:07;33.20;48.40
67077;DHT22;53991;46.364;17.008;2022-07-06T10:08:09;32.90;46.10
67077;DHT22;53991;46.364;17.008;2022-07-06T10:11:12;33.10;47.20
67077;DHT22;53991;46.364;17.008;2022-07-06T10:14:18;33.10;49.60
67077;DHT22;53991;46.364;17.008;2022-07-06T10:17:21;32.70;47.40
67077;DHT22;53991;46.364;17.008;2022-07-06T10:20:23;32.10;44.90
67077;DHT22;53991;46.364;17.008;2022-07-06T10:23:26;32.30;47.20
67077;DHT22;53991;46.364;17.008;2022-07-06T10:26:29;32.40;45.70
67077;DHT22;53991;46.364;17.008;2022-07-06T10:29:31;33.30;47.80
67077;DHT22;53991;46.364;17.008;2022-07-06T10:32:33;33.00;44.90
67077;DHT22;53991;46.364;17.008;2022-07-06T10:35:38;32.50;46.20
67077;DHT22;53991;46.364;17.008;2022-07-06T10:38:48;32.10;42.40
67077;DHT22;53991;46.364;17.008;2022-07-06T10:41:50;32.10;45.30
67077;DHT22;53991;46.364;17.008;2022-07-06T10:44:52;32.20;46.50
67077;DHT22;53991;46.364;17.008;2022-07-06T10:51:28;32.20;43.50
67077;DHT22;53991;46.364;17.008;2022-07-06T10:54:39;32.60;47.40
67077;DHT22;53991;46.364;17.008;2022-07-06T10:57:53;32.50;44.50
67077;DHT22;53991;46.364;17.008;2022-07-06T11:00:55;32.40;46.80
67077;DHT22;53991;46.364;17.008;2022-07-06T11:07:06;32.60;41.00
67077;DHT22;53991;46.364;17.008;2022-07-06T11:10:08;32.70;42.20
67077;DHT22;53991;46.364;17.008;2022-07-06T11:13:24;32.80;44.90
67077;DHT22;53991;46.364;17.008;2022-07-06T11:16:28;32.10;42.60
67077;DHT22;53991;46.364;17.008;2022-07-06T11:19:30;32.10;46.10
67077;DHT22;53991;46.364;17.008;2022-07-06T11:22:32;32.60;45.70
67077;DHT22;53991;46.364;17.008;2022-07-06T11:25:34;32.30;41.90
67077;DHT22;53991;46.364;17.008;2022-07-06T11:28:37;32.50;46.70
67077;DHT22;53991;46.364;17.008;2022-07-06T11:31:43;32.80;48.20
67077;DHT22;53991;46.364;17.008;2022-07-06T11:37:48;32.70;44.30
67077;DHT22;53991;46.364;17.008;2022-07-06T11:40:53;32.60;43.50
67077;DHT22;53991;46.364;17.008;2022-07-06T11:43:55;32.90;40.50
67077;DHT22;53991;46.364;17.008;2022-07-06T11:46:57;33.00;43.60
67077;DHT22;53991;46.364;17.008;2022-07-06T11:49:59;33.20;42.80
67077;DHT22;53991;46.364;17.008;2022-07-06T11:53:01;33.90;43.50
67077;DHT22;53991;46.364;17.008;2022-07-06T11:56:04;34.00;43.50
67077;DHT22;53991;46.364;17.008;2022-07-06T11:59:07;33.20;41.10
67077;DHT22;53991;46.364;17.008;2022-07-06T12:02:11;33.60;41.00
67077;DHT22;53991;46.364;17.008;2022-07-06T12:05:29;31.90;42.70
67077;DHT22;53991;46.364;17.008;2022-07-06T12:08:31;32.20;41.90
67077;DHT22;53991;46.364;17.008;2022-07-06T12:11:35;32.70;43.80
67077;DHT22;53991;46.364;17.008;2022-07-06T12:14:38;32.70;39.70
67077;DHT22;53991;46.364;17.008;2022-07-06T12:17:47;32.70;42.70
67077;DHT22;53991;46.364;17.008;2022-07-06T12:20:49;32.60;44.40
67077;DHT22;53991;46.364;17.008;2022-07-06T12:26:57;32.40;41.50
67077;DHT22;53991;46.364;17.008;2022-07-06T12:30:08;32.20;40.50
67077;DHT22;53991;46.364;17.008;2022-07-06T12:33:15;32.50;41.90
67077;DHT22;53991;46.364;17.008;2022-07-06T12:36:17;32.60;44.10
67077;DHT22;53991;46.364;17.008;2022-07-06T12:39:20;33.30;42.10
67077;DHT22;53991;46.364;17.008;2022-07-06T12:42:22;33.60;42.30
67077;DHT22;53991;46.364;17.008;2022-07-06T12:45:27;33.00;39.40
67077;DHT22;53991;46.364;17.008;2022-07-06T12:48:29;33.40;42.90
67077;DHT22;53991;46.364;17.008;2022-07-06T12:54:53;33.40;40.90
67077;DHT22;53991;46.364;17.008;2022-07-06T12:57:55;33.20;42.80
67077;DHT22;53991;46.364;17.008;2022-07-06T13:00:57;33.40;39.40
67077;DHT22;53991;46.364;17.008;2022-07-06T13:04:07;32.40;39.50
67077;DHT22;53991;46.364;17.008;2022-07-06T13:07:17;32.10;40.30
67077;DHT22;53991;46.364;17.008;2022-07-06T13:10:19;31.70;44.20
67077;DHT22;53991;46.364;17.008;2022-07-06T13:13:21;32.20;44.80
67077;DHT22;53991;46.364;17.008;2022-07-06T13:16:24;32.60;43.20
67077;DHT22;53991;46.364;17.008;2022-07-06T13:19:26;32.40;42.00
67077;DHT22;53991;46.364;17.008;2022-07-06T13:22:29;32.60;39.30
67077;DHT22;53991;46.364;17.008;2022-07-06T13:25:31;31.90;44.10
67077;DHT22;53991;46.364;17.008;2022-07-06T13:28:33;31.30;44.70
67077;DHT22;53991;46.364;17.008;2022-07-06T13:31:35;30.70;46.00
67077;DHT22;53991;46.364;17.008;2022-07-06T13:34:37;30.50;44.80
67077;DHT22;53991;46.364;17.008;2022-07-06T13:37:39;30.50;43.70
67077;DHT22;53991;46.364;17.008;2022-07-06T13:40:41;30.30;44.90
67077;DHT22;53991;46.364;17.008;2022-07-06T13:43:43;31.00;44.50
67077;DHT22;53991;46.364;17.008;2022-07-06T13:46:45;30.70;45.30
67077;DHT22;53991;46.364;17.008;2022-07-06T13:49:47;30.40;47.70
67077;DHT22;53991;46.364;17.008;2022-07-06T13:52:49;30.70;47.50
67077;DHT22;53991;46.364;17.008;2022-07-06T13:55:52;31.10;44.00
67077;DHT22;53991;46.364;17.008;2022-07-06T13:58:54;31.80;48.90
67077;DHT22;53991;46.364;17.008;2022-07-06T14:01:57;31.70;44.50
67077;DHT22;53991;46.364;17.008;2022-07-06T14:04:59;32.40;46.40
67077;DHT22;53991;46.364;17.008;2022-07-06T14:08:01;33.00;44.10
67077;DHT22;53991;46.364;17.008;2022-07-06T14:11:05;33.30;43.90
67077;DHT22;53991;46.364;17.008;2022-07-06T14:14:07;32.70;40.90
67077;DHT22;53991;46.364;17.008;2022-07-06T14:17:09;32.50;42.10
67077;DHT22;53991;46.364;17.008;2022-07-06T14:20:11;33.30;44.70
67077;DHT22;53991;46.364;17.008;2022-07-06T14:23:14;33.50;44.50
67077;DHT22;53991;46.364;17.008;2022-07-06T14:26:16;33.80;44.60
67077;DHT22;53991;46.364;17.008;2022-07-06T14:29:18;33.90;42.60
67077;DHT22;53991;46.364;17.008;2022-07-06T14:32:20;34.10;41.70
67077;DHT22;53991;46.364;17.008;2022-07-06T14:35:22;33.90;42.30
67077;DHT22;53991;46.364;17.008;2022-07-06T14:38:24;33.40;43.40
67077;DHT22;53991;46.364;17.008;2022-07-06T14:41:25;32.80;44.20
67077;DHT22;53991;46.364;17.008;2022-07-06T14:44:27;31.80;47.40
67077;DHT22;53991;46.364;17.008;2022-07-06T14:47:29;29.40;49.50
67077;DHT22;53991;46.364;17.008;2022-07-06T14:50:32;27.60;54.90
67077;DHT22;53991;46.364;17.008;2022-07-06T14:53:34;26.70;57.60
67077;DHT22;53991;46.364;17.008;2022-07-06T14:56:38;27.00;60.30
67077;DHT22;53991;46.364;17.008;2022-07-06T14:59:40;27.40;60.80
67077;DHT22;53991;46.364;17.008;2022-07-06T15:02:42;27.10;61.80
67077;DHT22;53991;46.364;17.008;2022-07-06T15:05:44;27.30;60.50
67077;DHT22;53991;46.364;17.008;2022-07-06T15:08:46;27.60;59.90
67077;DHT22;53991;46.364;17.008;2022-07-06T15:11:48;27.60;60.30
67077;DHT22;53991;46.364;17.008;2022-07-06T15:14:50;28.00;60.70
67077;DHT22;53991;46.364;17.008;2022-07-06T15:17:52;28.50;59.50
67077;DHT22;53991;46.364;17.008;2022-07-06T15:20:54;28.60;59.30
67077;DHT22;53991;46.364;17.008;2022-07-06T15:23:56;29.00;59.00
67077;DHT22;53991;46.364;17.008;2022-07-06T15:26:58;29.10;56.90
67077;DHT22;53991;46.364;17.008;2022-07-06T15:30:00;28.90;58.10
67077;DHT22;53991;46.364;17.008;2022-07-06T15:33:23;28.60;58.30
67077;DHT22;53991;46.364;17.008;2022-07-06T15:36:26;28.70;58.80
67077;DHT22;53991;46.364;17.008;2022-07-06T15:39:28;28.90;58.80
67077;DHT22;53991;46.364;17.008;2022-07-06T15:42:30;29.10;58.40
67077;DHT22;53991;46.364;17.008;2022-07-06T15:45:32;29.30;57.70
67077;DHT22;53991;46.364;17.008;2022-07-06T15:48:34;29.10;56.30
67077;DHT22;53991;46.364;17.008;2022-07-06T15:51:36;29.00;57.80
67077;DHT22;53991;46.364;17.008;2022-07-06T15:54:38;29.20;58.40
67077;DHT22;53991;46.364;17.008;2022-07-06T15:57:40;29.00;57.90
67077;DHT22;53991;46.364;17.008;2022-07-06T16:00:42;28.80;54.80
67077;DHT22;53991;46.364;17.008;2022-07-06T16:03:45;28.80;56.00
67077;DHT22;53991;46.364;17.008;2022-07-06T16:06:47;28.70;55.70
67077;DHT22;53991;46.364;17.008;2022-07-06T16:10:09;28.30;55.70
67077;DHT22;53991;46.364;17.008;2022-07-06T16:13:11;28.10;56.80
67077;DHT22;53991;46.364;17.008;2022-07-06T16:16:13;28.10;59.40
67077;DHT22;53991;46.364;17.008;2022-07-06T16:19:15;28.30;58.70
67077;DHT22;53991;46.364;17.008;2022-07-06T16:22:17;28.30;57.50
67077;DHT22;53991;46.364;17.008;2022-07-06T16:25:19;27.90;58.00
67077;DHT22;53991;46.364;17.008;2022-07-06T16:28:21;27.80;56.60
67077;DHT22;53991;46.364;17.008;2022-07-06T16:31:24;27.30;58.40
67077;DHT22;53991;46.364;17.008;2022-07-06T16:34:26;27.70;57.20
67077;DHT22;53991;46.364;17.008;2022-07-06T16:37:28;27.70;59.60
67077;DHT22;53991;46.364;17.008;2022-07-06T16:40:30;27.60;58.50
67077;DHT22;53991;46.364;17.008;2022-07-06T16:43:32;27.50;59.60
67077;DHT22;53991;46.364;17.008;2022-07-06T16:46:35;27.30;60.00
67077;DHT22;53991;46.364;17.008;2022-07-06T16:49:37;27.00;58.50
67077;DHT22;53991;46.364;17.008;2022-07-06T16:52:39;26.90;60.40
67077;DHT22;53991;46.364;17.008;2022-07-06T16:55:41;26.90;61.20
67077;DHT22;53991;46.364;17.008;2022-07-06T16:58:44;26.70;62.10
67077;DHT22;53991;46.364;17.008;2022-07-06T17:01:46;26.60;62.70
67077;DHT22;53991;46.364;17.008;2022-07-06T17:04:49;26.50;63.00
67077;DHT22;53991;46.364;17.008;2022-07-06T17:07:51;26.40;62.20
67077;DHT22;53991;46.364;17.008;2022-07-06T17:10:53;26.40;62.70
67077;DHT22;53991;46.364;17.008;2022-07-06T17:13:55;26.30;63.60
67077;DHT22;53991;46.364;17.008;2022-07-06T17:16:57;26.30;63.70
67077;DHT22;53991;46.364;17.008;2022-07-06T17:20:00;26.30;64.30
67077;DHT22;53991;46.364;17.008;2022-07-06T17:23:02;26.10;64.20
67077;DHT22;53991;46.364;17.008;2022-07-06T17:26:04;26.00;62.90
67077;DHT22;53991;46.364;17.008;2022-07-06T17:29:06;25.90;64.30
67077;DHT22;53991;46.364;17.008;2022-07-06T17:32:08;25.80;64.80
67077;DHT22;53991;46.364;17.008;2022-07-06T17:35:12;25.60;64.20
67077;DHT22;53991;46.364;17.008;2022-07-06T17:38:15;25.50;65.40
67077;DHT22;53991;46.364;17.008;2022-07-06T17:41:17;25.30;64.50
67077;DHT22;53991;46.364;17.008;2022-07-06T17:44:19;25.10;66.00
67077;DHT22;53991;46.364;17.008;2022-07-06T17:47:21;24.90;67.80
67077;DHT22;53991;46.364;17.008;2022-07-06T17:50:23;24.80;69.10
67077;DHT22;53991;46.364;17.008;2022-07-06T17:53:26;24.60;71.70
67077;DHT22;53991;46.364;17.008;2022-07-06T17:56:29;24.40;73.50
67077;DHT22;53991;46.364;17.008;2022-07-06T17:59:31;24.00;73.80
67077;DHT22;53991;46.364;17.008;2022-07-06T18:02:33;23.70;77.20
67077;DHT22;53991;46.364;17.008;2022-07-06T18:05:35;23.50;77.30
67077;DHT22;53991;46.364;17.008;2022-07-06T18:08:37;23.30;81.60
67077;DHT22;53991;46.364;17.008;2022-07-06T18:11:40;23.00;85.70
67077;DHT22;53991;46.364;17.008;2022-07-06T18:14:42;22.70;88.70
67077;DHT22;53991;46.364;17.008;2022-07-06T18:17:44;22.40;91.80
67077;DHT22;53991;46.364;17.008;2022-07-06T18:20:57;22.10;93.40
67077;DHT22;53991;46.364;17.008;2022-07-06T18:23:59;21.90;95.50
67077;DHT22;53991;46.364;17.008;2022-07-06T18:27:01;21.60;96.10
67077;DHT22;53991;46.364;17.008;2022-07-06T18:30:04;21.40;97.90
67077;DHT22;53991;46.364;17.008;2022-07-06T18:33:07;21.20;98.20
67077;DHT22;53991;46.364;17.008;2022-07-06T18:36:09;20.90;98.30
67077;DHT22;53991;46.364;17.008;2022-07-06T18:39:12;20.70;99.50
67077;DHT22;53991;46.364;17.008;2022-07-06T18:42:14;20.50;99.80
67077;DHT22;53991;46.364;17.008;2022-07-06T18:45:16;20.30;99.90
67077;DHT22;53991;46.364;17.008;2022-07-06T18:48:18;20.20;99.90
67077;DHT22;53991;46.364;17.008;2022-07-06T18:51:20;19.90;99.90
67077;DHT22;53991;46.364;17.008;2022-07-06T18:54:23;19.80;99.90
67077;DHT22;53991;46.364;17.008;2022-07-06T18:57:25;19.60;99.90
67077;DHT22;53991;46.364;17.008;2022-07-06T19:00:27;19.50;99.90
67077;DHT22;53991;46.364;17.008;2022-07-06T19:03:29;19.30;99.90
67077;DHT22;53991;46.364;17.008;2022-07-06T19:06:32;19.20;99.90
67077;DHT22;53991;46.364;17.008;2022-07-06T19:09:34;19.00;99.90
67077;DHT22;53991;46.364;17.008;2022-07-06T19:12:36;18.80;99.90
67077;DHT22;53991;46.364;17.008;2022-07-06T19:15:38;18.80;99.90